sensor_id;sensor_type;location;lat;lon;timestamp;pressure;altitude;pressure_sealevel;temperature;humidity
60246;BME280;46107;53.356;-1.524;2023-02-17T00:01:28;98740.74;;;9.64;100.00
60246;BME280;46107;53.356;-1.524;2023-02-17T00:03:57;98736.33;;;9.80;100.00
60246;BME280;46107;53.356;-1.524;2023-02-17T00:06:27;98723.69;;;9.46;100.00
60246;BME280;46107;53.356;-1.524;2023-02-17T00:08:54;98725.37;;;9.11;100.00
60246;BME280;46107;53.356;-1.524;2023-02-17T00:11:22;98724.08;;;10.10;100.00
60246;BME280;46107;53.356;-1.524;2023-02-17T00:13:50;98717.06;;;10.14;100.00
60246;BME280;46107;53.356;-1.524;2023-02-17T00:16:20;98721.74;;;9.50;100.00
60246;BME280;46107;53.356;-1.524;2023-02-17T00:18:52;98717.83;;;9.44;100.00
60246;BME280;46107;53.356;-1.524;2023-02-17T00:21:22;98715.95;;;9.63;100.00
60246;BME280;46107;53.356;-1.524;2023-02-17T00:23:50;98718.36;;;9.38;100.00
60246;BME280;46107;53.356;-1.524;2023-02-17T00:26:19;98704.58;;;9.17;100.00
60246;BME280;46107;53.356;-1.524;2023-02-17T00:28:47;98692.52;;;9.44;100.00
60246;BME280;46107;53.356;-1.524;2023-02-17T00:31:17;98696.30;;;9.04;100.00
60246;BME280;46107;53.356;-1.524;2023-02-17T00:33:46;98701.04;;;8.32;100.00
60246;BME280;46107;53.356;-1.524;2023-02-17T00:36:16;98689.94;;;9.60;100.00
60246;BME280;46107;53.356;-1.524;2023-02-17T00:38:49;98687.03;;;9.62;100.00
60246;BME280;46107;53.356;-1.524;2023-02-17T00:41:18;98686.62;;;8.96;100.00
60246;BME280;46107;53.356;-1.524;2023-02-17T00:43:46;98698.31;;;8.18;100.00
60246;BME280;46107;53.356;-1.524;2023-02-17T00:46:15;98685.37;;;8.99;100.00
60246;BME280;46107;53.356;-1.524;2023-02-17T00:48:44;98687.83;;;8.85;100.00
60246;BME280;46107;53.356;-1.524;2023-02-17T00:51:12;98693.17;;;8.66;100.00
60246;BME280;46107;53.356;-1.524;2023-02-17T00:53:40;98702.42;;;8.48;100.00
60246;BME280;46107;53.356;-1.524;2023-02-17T00:56:08;98705.54;;;8.98;100.00
60246;BME280;46107;53.356;-1.524;2023-02-17T00:58:36;98714.81;;;9.73;100.00
60246;BME280;46107;53.356;-1.524;2023-02-17T01:01:05;98722.50;;;9.07;100.00
60246;BME280;46107;53.356;-1.524;2023-02-17T01:03:32;98708.08;;;9.15;100.00
60246;BME280;46107;53.356;-1.524;2023-02-17T01:06:05;98713.16;;;8.98;100.00
60246;BME280;46107;53.356;-1.524;2023-02-17T01:08:33;98709.13;;;9.55;100.00
60246;BME280;46107;53.356;-1.524;2023-02-17T01:11:00;98716.51;;;8.77;100.00
60246;BME280;46107;53.356;-1.524;2023-02-17T01:13:28;98716.05;;;8.98;100.00
60246;BME280;46107;53.356;-1.524;2023-02-17T01:15:54;98708.37;;;8.61;100.00
60246;BME280;46107;53.356;-1.524;2023-02-17T01:18:23;98725.67;;;8.50;100.00
60246;BME280;46107;53.356;-1.524;2023-02-17T01:20:51;98715.72;;;8.09;100.00
60246;BME280;46107;53.356;-1.524;2023-02-17T01:23:19;98709.65;;;8.98;100.00
60246;BME280;46107;53.356;-1.524;2023-02-17T01:25:48;98697.51;;;8.97;100.00
60246;BME280;46107;53.356;-1.524;2023-02-17T01:28:18;98698.82;;;8.74;100.00
60246;BME280;46107;53.356;-1.524;2023-02-17T01:30:46;98696.89;;;9.40;100.00
60246;BME280;46107;53.356;-1.524;2023-02-17T01:33:14;98691.73;;;8.83;100.00
60246;BME280;46107;53.356;-1.524;2023-02-17T01:35:42;98693.45;;;9.06;100.00
60246;BME280;46107;53.356;-1.524;2023-02-17T01:38:09;98702.67;;;9.43;100.00
60246;BME280;46107;53.356;-1.524;2023-02-17T01:40:37;98699.06;;;9.00;100.00
60246;BME280;46107;53.356;-1.524;2023-02-17T01:43:15;98704.39;;;8.76;100.00
60246;BME280;46107;53.356;-1.524;2023-02-17T01:45:46;98707.49;;;8.58;100.00
60246;BME280;46107;53.356;-1.524;2023-02-17T01:48:19;98702.87;;;9.00;100.00
60246;BME280;46107;53.356;-1.524;2023-02-17T01:50:49;98695.03;;;8.95;100.00
60246;BME280;46107;53.356;-1.524;2023-02-17T01:53:22;98685.67;;;8.58;100.00
60246;BME280;46107;53.356;-1.524;2023-02-17T01:55:52;98681.36;;;8.22;100.00
60246;BME280;46107;53.356;-1.524;2023-02-17T01:58:22;98679.47;;;8.55;100.00
60246;BME280;46107;53.356;-1.524;2023-02-17T02:00:52;98676.88;;;8.30;100.00
60246;BME280;46107;53.356;-1.524;2023-02-17T02:03:22;98688.88;;;8.32;100.00
60246;BME280;46107;53.356;-1.524;2023-02-17T02:05:51;98686.51;;;8.91;100.00
60246;BME280;46107;53.356;-1.524;2023-02-17T02:08:18;98679.53;;;8.13;100.00
60246;BME280;46107;53.356;-1.524;2023-02-17T02:10:45;98671.41;;;8.98;100.00
60246;BME280;46107;53.356;-1.524;2023-02-17T02:13:13;98669.94;;;9.15;100.00
60246;BME280;46107;53.356;-1.524;2023-02-17T02:15:50;98673.38;;;8.64;100.00
60246;BME280;46107;53.356;-1.524;2023-02-17T02:18:39;98662.92;;;8.72;100.00
60246;BME280;46107;53.356;-1.524;2023-02-17T02:21:59;98649.29;;;9.86;100.00
60246;BME280;46107;53.356;-1.524;2023-02-17T02:24:43;98635.95;;;8.68;100.00
60246;BME280;46107;53.356;-1.524;2023-02-17T02:27:36;98620.54;;;9.29;100.00
60246;BME280;46107;53.356;-1.524;2023-02-17T02:31:24;98644.82;;;8.91;100.00
60246;BME280;46107;53.356;-1.524;2023-02-17T02:33:57;98645.78;;;8.78;100.00
60246;BME280;46107;53.356;-1.524;2023-02-17T02:36:28;98642.64;;;8.32;100.00
60246;BME280;46107;53.356;-1.524;2023-02-17T02:39:00;98637.03;;;8.49;100.00
60246;BME280;46107;53.356;-1.524;2023-02-17T02:41:32;98626.79;;;8.36;100.00
60246;BME280;46107;53.356;-1.524;2023-02-17T02:44:03;98633.13;;;8.59;100.00
60246;BME280;46107;53.356;-1.524;2023-02-17T02:46:30;98635.47;;;8.50;100.00
60246;BME280;46107;53.356;-1.524;2023-02-17T02:48:59;98631.38;;;8.76;100.00
60246;BME280;46107;53.356;-1.524;2023-02-17T02:51:35;98641.99;;;8.73;100.00
60246;BME280;46107;53.356;-1.524;2023-02-17T02:54:30;98656.84;;;8.14;100.00
60246;BME280;46107;53.356;-1.524;2023-02-17T02:57:13;98658.07;;;8.89;100.00
60246;BME280;46107;53.356;-1.524;2023-02-17T02:59:54;98653.63;;;8.31;100.00
60246;BME280;46107;53.356;-1.524;2023-02-17T03:02:29;98635.11;;;7.76;100.00
60246;BME280;46107;53.356;-1.524;2023-02-17T03:05:03;98630.80;;;8.36;100.00
60246;BME280;46107;53.356;-1.524;2023-02-17T03:07:37;98624.83;;;8.50;100.00
60246;BME280;46107;53.356;-1.524;2023-02-17T03:10:08;98628.59;;;8.56;100.00
60246;BME280;46107;53.356;-1.524;2023-02-17T03:12:36;98631.92;;;8.25;100.00
60246;BME280;46107;53.356;-1.524;2023-02-17T03:15:13;98619.47;;;8.23;100.00
60246;BME280;46107;53.356;-1.524;2023-02-17T03:17:41;98611.58;;;8.16;100.00
60246;BME280;46107;53.356;-1.524;2023-02-17T03:20:11;98610.17;;;8.29;100.00
60246;BME280;46107;53.356;-1.524;2023-02-17T03:22:44;98616.47;;;8.27;100.00
60246;BME280;46107;53.356;-1.524;2023-02-17T03:25:12;98612.41;;;8.80;100.00
60246;BME280;46107;53.356;-1.524;2023-02-17T03:27:40;98597.68;;;8.51;100.00
60246;BME280;46107;53.356;-1.524;2023-02-17T03:30:09;98593.36;;;8.99;100.00
60246;BME280;46107;53.356;-1.524;2023-02-17T03:32:37;98588.55;;;8.39;100.00
60246;BME280;46107;53.356;-1.524;2023-02-17T03:35:05;98572.16;;;8.04;100.00
60246;BME280;46107;53.356;-1.524;2023-02-17T03:37:33;98573.47;;;7.79;100.00
60246;BME280;46107;53.356;-1.524;2023-02-17T03:40:00;98565.70;;;7.84;100.00
60246;BME280;46107;53.356;-1.524;2023-02-17T03:42:27;98574.39;;;8.17;100.00
60246;BME280;46107;53.356;-1.524;2023-02-17T03:44:55;98563.18;;;7.89;100.00
60246;BME280;46107;53.356;-1.524;2023-02-17T03:47:22;98561.06;;;7.65;100.00
60246;BME280;46107;53.356;-1.524;2023-02-17T03:49:50;98556.06;;;8.42;100.00
60246;BME280;46107;53.356;-1.524;2023-02-17T03:52:19;98554.99;;;8.40;100.00
60246;BME280;46107;53.356;-1.524;2023-02-17T03:54:47;98546.53;;;8.66;100.00
60246;BME280;46107;53.356;-1.524;2023-02-17T03:57:14;98524.78;;;8.56;100.00
60246;BME280;46107;53.356;-1.524;2023-02-17T03:59:41;98536.54;;;8.10;100.00
60246;BME280;46107;53.356;-1.524;2023-02-17T04:02:09;98538.37;;;8.74;100.00
60246;BME280;46107;53.356;-1.524;2023-02-17T04:04:36;98530.25;;;8.60;100.00
60246;BME280;46107;53.356;-1.524;2023-02-17T04:07:04;98524.84;;;8.44;100.00
60246;BME280;46107;53.356;-1.524;2023-02-17T04:09:32;98542.32;;;8.01;100.00
60246;BME280;46107;53.356;-1.524;2023-02-17T04:11:59;98525.34;;;8.58;100.00
60246;BME280;46107;53.356;-1.524;2023-02-17T04:14:27;98531.31;;;9.00;100.00
60246;BME280;46107;53.356;-1.524;2023-02-17T04:16:54;98534.85;;;9.00;100.00
60246;BME280;46107;53.356;-1.524;2023-02-17T04:19:22;98538.60;;;8.37;100.00
60246;BME280;46107;53.356;-1.524;2023-02-17T04:21:50;98533.14;;;8.64;100.00
60246;BME280;46107;53.356;-1.524;2023-02-17T04:24:17;98531.83;;;8.47;100.00
60246;BME280;46107;53.356;-1.524;2023-02-17T04:26:45;98517.96;;;8.82;100.00
60246;BME280;46107;53.356;-1.524;2023-02-17T04:29:13;98502.78;;;9.06;100.00
60246;BME280;46107;53.356;-1.524;2023-02-17T04:31:40;98521.20;;;8.41;100.00
60246;BME280;46107;53.356;-1.524;2023-02-17T04:34:08;98509.12;;;8.80;100.00
60246;BME280;46107;53.356;-1.524;2023-02-17T04:36:35;98520.71;;;9.00;100.00
60246;BME280;46107;53.356;-1.524;2023-02-17T04:39:03;98510.21;;;8.54;100.00
60246;BME280;46107;53.356;-1.524;2023-02-17T04:41:30;98508.57;;;8.58;100.00
60246;BME280;46107;53.356;-1.524;2023-02-17T04:43:58;98522.26;;;9.23;97.34
60246;BME280;46107;53.356;-1.524;2023-02-17T04:46:25;98517.62;;;9.75;96.53
60246;BME280;46107;53.356;-1.524;2023-02-17T04:48:53;98507.26;;;9.82;93.37
60246;BME280;46107;53.356;-1.524;2023-02-17T04:51:20;98500.61;;;9.58;94.52
60246;BME280;46107;53.356;-1.524;2023-02-17T04:53:48;98495.20;;;9.65;95.80
60246;BME280;46107;53.356;-1.524;2023-02-17T04:56:15;98493.29;;;9.70;96.04
60246;BME280;46107;53.356;-1.524;2023-02-17T04:58:43;98501.48;;;9.33;96.10
60246;BME280;46107;53.356;-1.524;2023-02-17T05:01:11;98484.86;;;8.94;100.00
60246;BME280;46107;53.356;-1.524;2023-02-17T05:03:39;98495.51;;;9.60;94.59
60246;BME280;46107;53.356;-1.524;2023-02-17T05:06:06;98471.57;;;9.89;91.63
60246;BME280;46107;53.356;-1.524;2023-02-17T05:08:34;98468.90;;;9.96;92.82
60246;BME280;46107;53.356;-1.524;2023-02-17T05:11:01;98463.44;;;9.79;92.35
60246;BME280;46107;53.356;-1.524;2023-02-17T05:13:29;98465.73;;;10.10;91.35
60246;BME280;46107;53.356;-1.524;2023-02-17T05:15:56;98461.44;;;9.09;97.33
60246;BME280;46107;53.356;-1.524;2023-02-17T05:18:24;98469.05;;;8.69;100.00
60246;BME280;46107;53.356;-1.524;2023-02-17T05:20:52;98460.65;;;10.04;93.37
60246;BME280;46107;53.356;-1.524;2023-02-17T05:23:19;98460.78;;;8.42;100.00
60246;BME280;46107;53.356;-1.524;2023-02-17T05:25:47;98478.60;;;9.30;98.58
60246;BME280;46107;53.356;-1.524;2023-02-17T05:28:15;98467.45;;;8.55;100.00
60246;BME280;46107;53.356;-1.524;2023-02-17T05:30:42;98476.63;;;9.24;98.42
60246;BME280;46107;53.356;-1.524;2023-02-17T05:33:09;98483.82;;;9.43;95.82
60246;BME280;46107;53.356;-1.524;2023-02-17T05:35:37;98481.07;;;9.26;97.82
60246;BME280;46107;53.356;-1.524;2023-02-17T05:38:05;98486.45;;;8.58;100.00
60246;BME280;46107;53.356;-1.524;2023-02-17T05:40:32;98508.07;;;9.24;96.77
60246;BME280;46107;53.356;-1.524;2023-02-17T05:43:00;98499.38;;;9.11;100.00
60246;BME280;46107;53.356;-1.524;2023-02-17T05:45:28;98501.35;;;9.60;98.93
60246;BME280;46107;53.356;-1.524;2023-02-17T05:47:55;98524.18;;;9.30;100.00
60246;BME280;46107;53.356;-1.524;2023-02-17T05:50:22;98512.49;;;9.21;100.00
60246;BME280;46107;53.356;-1.524;2023-02-17T05:52:49;98511.04;;;8.78;100.00
60246;BME280;46107;53.356;-1.524;2023-02-17T05:55:17;98499.76;;;8.72;100.00
60246;BME280;46107;53.356;-1.524;2023-02-17T05:57:44;98507.13;;;8.40;100.00
60246;BME280;46107;53.356;-1.524;2023-02-17T06:00:13;98510.21;;;8.82;100.00
60246;BME280;46107;53.356;-1.524;2023-02-17T06:02:41;98511.82;;;8.76;100.00
60246;BME280;46107;53.356;-1.524;2023-02-17T06:05:09;98513.59;;;8.60;100.00
60246;BME280;46107;53.356;-1.524;2023-02-17T06:07:37;98510.79;;;8.56;100.00
60246;BME280;46107;53.356;-1.524;2023-02-17T06:10:06;98507.94;;;8.46;100.00
60246;BME280;46107;53.356;-1.524;2023-02-17T06:12:34;98511.95;;;8.62;100.00
60246;BME280;46107;53.356;-1.524;2023-02-17T06:15:02;98515.79;;;8.95;100.00
60246;BME280;46107;53.356;-1.524;2023-02-17T06:17:30;98497.68;;;9.43;100.00
60246;BME280;46107;53.356;-1.524;2023-02-17T06:19:57;98502.38;;;8.66;100.00
60246;BME280;46107;53.356;-1.524;2023-02-17T06:22:25;98498.48;;;8.68;100.00
60246;BME280;46107;53.356;-1.524;2023-02-17T06:24:53;98502.67;;;8.97;100.00
60246;BME280;46107;53.356;-1.524;2023-02-17T06:27:21;98513.90;;;9.23;100.00
60246;BME280;46107;53.356;-1.524;2023-02-17T06:29:48;98475.83;;;8.39;100.00
60246;BME280;46107;53.356;-1.524;2023-02-17T06:32:15;98491.80;;;9.25;100.00
60246;BME280;46107;53.356;-1.524;2023-02-17T06:34:45;98506.92;;;8.21;100.00
60246;BME280;46107;53.356;-1.524;2023-02-17T06:37:13;98494.24;;;9.02;100.00
60246;BME280;46107;53.356;-1.524;2023-02-17T06:39:41;98496.94;;;8.42;100.00
60246;BME280;46107;53.356;-1.524;2023-02-17T06:42:09;98491.18;;;8.58;100.00
60246;BME280;46107;53.356;-1.524;2023-02-17T06:44:36;98487.62;;;8.41;100.00
60246;BME280;46107;53.356;-1.524;2023-02-17T06:47:04;98496.58;;;8.77;100.00
60246;BME280;46107;53.356;-1.524;2023-02-17T06:49:31;98478.96;;;9.16;100.00
60246;BME280;46107;53.356;-1.524;2023-02-17T06:51:58;98463.63;;;8.78;100.00
60246;BME280;46107;53.356;-1.524;2023-02-17T06:54:26;98468.51;;;8.70;100.00
60246;BME280;46107;53.356;-1.524;2023-02-17T06:56:53;98459.23;;;8.47;100.00
60246;BME280;46107;53.356;-1.524;2023-02-17T06:59:21;98461.15;;;8.63;100.00
60246;BME280;46107;53.356;-1.524;2023-02-17T07:01:48;98449.73;;;8.42;100.00
60246;BME280;46107;53.356;-1.524;2023-02-17T07:04:16;98445.30;;;8.41;100.00
60246;BME280;46107;53.356;-1.524;2023-02-17T07:06:57;98443.09;;;8.29;100.00
60246;BME280;46107;53.356;-1.524;2023-02-17T07:09:25;98434.75;;;8.02;100.00
60246;BME280;46107;53.356;-1.524;2023-02-17T07:11:52;98449.11;;;8.91;100.00
60246;BME280;46107;53.356;-1.524;2023-02-17T07:14:20;98460.16;;;9.02;100.00
60246;BME280;46107;53.356;-1.524;2023-02-17T07:16:48;98449.94;;;8.46;100.00
60246;BME280;46107;53.356;-1.524;2023-02-17T07:19:16;98458.92;;;8.69;100.00
60246;BME280;46107;53.356;-1.524;2023-02-17T07:21:48;98466.74;;;8.08;100.00
60246;BME280;46107;53.356;-1.524;2023-02-17T07:24:16;98467.31;;;8.66;100.00
60246;BME280;46107;53.356;-1.524;2023-02-17T07:26:49;98456.47;;;8.12;100.00
60246;BME280;46107;53.356;-1.524;2023-02-17T07:29:17;98459.88;;;8.74;100.00
60246;BME280;46107;53.356;-1.524;2023-02-17T07:31:45;98440.01;;;8.51;100.00
60246;BME280;46107;53.356;-1.524;2023-02-17T07:34:12;98422.08;;;8.58;100.00
60246;BME280;46107;53.356;-1.524;2023-02-17T07:36:40;98438.31;;;8.54;100.00
60246;BME280;46107;53.356;-1.524;2023-02-17T07:39:08;98429.20;;;7.82;100.00
60246;BME280;46107;53.356;-1.524;2023-02-17T07:41:36;98427.19;;;7.43;100.00
60246;BME280;46107;53.356;-1.524;2023-02-17T07:44:04;98435.67;;;7.82;100.00
60246;BME280;46107;53.356;-1.524;2023-02-17T07:46:31;98430.44;;;8.20;100.00
60246;BME280;46107;53.356;-1.524;2023-02-17T07:48:59;98433.37;;;8.34;100.00
60246;BME280;46107;53.356;-1.524;2023-02-17T07:51:27;98424.02;;;8.02;100.00
60246;BME280;46107;53.356;-1.524;2023-02-17T07:53:54;98422.77;;;7.23;100.00
60246;BME280;46107;53.356;-1.524;2023-02-17T07:56:23;98407.80;;;7.44;100.00
60246;BME280;46107;53.356;-1.524;2023-02-17T07:58:50;98392.08;;;7.51;100.00
60246;BME280;46107;53.356;-1.524;2023-02-17T08:01:19;98414.00;;;7.02;100.00
60246;BME280;46107;53.356;-1.524;2023-02-17T08:03:48;98400.92;;;8.01;100.00
60246;BME280;46107;53.356;-1.524;2023-02-17T08:06:18;98406.05;;;7.79;100.00
60246;BME280;46107;53.356;-1.524;2023-02-17T08:08:47;98418.22;;;7.69;100.00
60246;BME280;46107;53.356;-1.524;2023-02-17T08:11:15;98402.04;;;7.71;100.00
60246;BME280;46107;53.356;-1.524;2023-02-17T08:13:46;98399.02;;;8.02;100.00
60246;BME280;46107;53.356;-1.524;2023-02-17T08:16:13;98411.42;;;8.17;100.00
60246;BME280;46107;53.356;-1.524;2023-02-17T08:18:41;98409.46;;;7.77;100.00
60246;BME280;46107;53.356;-1.524;2023-02-17T08:21:09;98409.44;;;7.80;100.00
60246;BME280;46107;53.356;-1.524;2023-02-17T08:23:36;98397.03;;;7.87;100.00
60246;BME280;46107;53.356;-1.524;2023-02-17T08:26:04;98408.85;;;7.80;100.00
60246;BME280;46107;53.356;-1.524;2023-02-17T08:28:31;98388.14;;;7.84;100.00
60246;BME280;46107;53.356;-1.524;2023-02-17T08:30:58;98410.78;;;7.46;100.00
60246;BME280;46107;53.356;-1.524;2023-02-17T08:33:26;98370.90;;;7.13;100.00
60246;BME280;46107;53.356;-1.524;2023-02-17T08:35:53;98356.42;;;7.11;100.00
60246;BME280;46107;53.356;-1.524;2023-02-17T08:38:21;98383.44;;;7.73;100.00
60246;BME280;46107;53.356;-1.524;2023-02-17T08:40:51;98367.55;;;7.45;100.00
60246;BME280;46107;53.356;-1.524;2023-02-17T08:43:19;98385.41;;;7.48;100.00
60246;BME280;46107;53.356;-1.524;2023-02-17T08:45:46;98362.71;;;7.25;100.00
60246;BME280;46107;53.356;-1.524;2023-02-17T08:48:14;98352.29;;;6.99;100.00
60246;BME280;46107;53.356;-1.524;2023-02-17T08:50:41;98343.08;;;7.28;100.00
60246;BME280;46107;53.356;-1.524;2023-02-17T08:53:09;98336.21;;;7.09;100.00
60246;BME280;46107;53.356;-1.524;2023-02-17T08:55:36;98334.49;;;7.05;100.00
60246;BME280;46107;53.356;-1.524;2023-02-17T08:58:04;98352.56;;;7.61;100.00
60246;BME280;46107;53.356;-1.524;2023-02-17T09:00:31;98329.56;;;7.29;100.00
60246;BME280;46107;53.356;-1.524;2023-02-17T09:02:59;98309.98;;;7.11;100.00
60246;BME280;46107;53.356;-1.524;2023-02-17T09:05:27;98335.18;;;6.94;100.00
60246;BME280;46107;53.356;-1.524;2023-02-17T09:07:54;98320.13;;;7.43;100.00
60246;BME280;46107;53.356;-1.524;2023-02-17T09:10:22;98317.42;;;7.46;100.00
60246;BME280;46107;53.356;-1.524;2023-02-17T09:12:54;98324.96;;;7.42;100.00
60246;BME280;46107;53.356;-1.524;2023-02-17T09:15:21;98334.86;;;7.54;100.00
60246;BME280;46107;53.356;-1.524;2023-02-17T09:17:49;98324.19;;;7.73;100.00
60246;BME280;46107;53.356;-1.524;2023-02-17T09:20:16;98350.50;;;7.53;100.00
60246;BME280;46107;53.356;-1.524;2023-02-17T09:22:46;98316.22;;;7.72;100.00
60246;BME280;46107;53.356;-1.524;2023-02-17T09:25:15;98316.82;;;7.55;100.00
60246;BME280;46107;53.356;-1.524;2023-02-17T09:27:42;98316.19;;;7.59;100.00
60246;BME280;46107;53.356;-1.524;2023-02-17T09:30:11;98303.15;;;7.58;100.00
60246;BME280;46107;53.356;-1.524;2023-02-17T09:32:40;98277.19;;;7.78;100.00
60246;BME280;46107;53.356;-1.524;2023-02-17T09:35:09;98301.87;;;7.80;100.00
60246;BME280;46107;53.356;-1.524;2023-02-17T09:37:38;98259.48;;;7.43;100.00
60246;BME280;46107;53.356;-1.524;2023-02-17T09:40:07;98295.24;;;7.34;100.00
60246;BME280;46107;53.356;-1.524;2023-02-17T09:42:38;98318.85;;;7.39;100.00
60246;BME280;46107;53.356;-1.524;2023-02-17T09:45:11;98312.27;;;7.57;100.00
60246;BME280;46107;53.356;-1.524;2023-02-17T09:47:43;98329.94;;;7.70;99.80
60246;BME280;46107;53.356;-1.524;2023-02-17T09:50:17;98322.77;;;7.44;100.00
60246;BME280;46107;53.356;-1.524;2023-02-17T09:52:56;98341.57;;;7.48;100.00
60246;BME280;46107;53.356;-1.524;2023-02-17T09:55:27;98352.59;;;7.31;100.00
60246;BME280;46107;53.356;-1.524;2023-02-17T09:57:57;98357.33;;;7.74;100.00
60246;BME280;46107;53.356;-1.524;2023-02-17T10:00:31;98357.01;;;7.15;100.00
60246;BME280;46107;53.356;-1.524;2023-02-17T10:03:05;98368.64;;;6.97;100.00
60246;BME280;46107;53.356;-1.524;2023-02-17T10:05:44;98379.74;;;7.51;100.00
60246;BME280;46107;53.356;-1.524;2023-02-17T10:08:18;98375.56;;;7.33;100.00
60246;BME280;46107;53.356;-1.524;2023-02-17T10:10:53;98414.35;;;7.56;100.00
60246;BME280;46107;53.356;-1.524;2023-02-17T10:13:24;98412.08;;;7.53;100.00
60246;BME280;46107;53.356;-1.524;2023-02-17T10:16:02;98398.02;;;7.45;100.00
60246;BME280;46107;53.356;-1.524;2023-02-17T10:18:34;98414.73;;;7.49;100.00
60246;BME280;46107;53.356;-1.524;2023-02-17T10:21:05;98417.88;;;7.50;100.00
60246;BME280;46107;53.356;-1.524;2023-02-17T10:23:35;98420.07;;;7.68;100.00
60246;BME280;46107;53.356;-1.524;2023-02-17T10:26:09;98426.11;;;7.80;99.82
60246;BME280;46107;53.356;-1.524;2023-02-17T10:28:48;98436.43;;;7.51;99.31
60246;BME280;46107;53.356;-1.524;2023-02-17T10:31:32;98440.50;;;7.74;98.46
60246;BME280;46107;53.356;-1.524;2023-02-17T10:34:04;98474.34;;;8.15;96.10
60246;BME280;46107;53.356;-1.524;2023-02-17T10:36:45;98481.01;;;8.30;95.72
60246;BME280;46107;53.356;-1.524;2023-02-17T10:39:19;98516.98;;;8.18;95.76
60246;BME280;46107;53.356;-1.524;2023-02-17T10:41:54;98517.73;;;7.73;96.42
60246;BME280;46107;53.356;-1.524;2023-02-17T10:44:23;98536.02;;;8.14;92.03
60246;BME280;46107;53.356;-1.524;2023-02-17T10:46:51;98531.76;;;8.88;90.27
60246;BME280;46107;53.356;-1.524;2023-02-17T10:49:26;98574.33;;;8.44;90.59
60246;BME280;46107;53.356;-1.524;2023-02-17T10:52:00;98561.43;;;7.83;93.87
60246;BME280;46107;53.356;-1.524;2023-02-17T10:54:34;98567.87;;;7.75;93.12
60246;BME280;46107;53.356;-1.524;2023-02-17T10:57:04;98578.66;;;7.42;96.00
60246;BME280;46107;53.356;-1.524;2023-02-17T10:59:38;98585.85;;;7.79;94.45
60246;BME280;46107;53.356;-1.524;2023-02-17T11:02:15;98600.67;;;7.96;93.13
60246;BME280;46107;53.356;-1.524;2023-02-17T11:04:47;98619.79;;;7.79;91.34
60246;BME280;46107;53.356;-1.524;2023-02-17T11:07:18;98615.06;;;7.68;94.30
60246;BME280;46107;53.356;-1.524;2023-02-17T11:09:53;98633.91;;;8.17;91.28
60246;BME280;46107;53.356;-1.524;2023-02-17T11:12:27;98649.97;;;8.04;91.80
60246;BME280;46107;53.356;-1.524;2023-02-17T11:14:56;98674.71;;;8.57;88.62
60246;BME280;46107;53.356;-1.524;2023-02-17T11:17:27;98685.86;;;7.99;93.43
60246;BME280;46107;53.356;-1.524;2023-02-17T11:19:58;98725.54;;;8.53;90.13
60246;BME280;46107;53.356;-1.524;2023-02-17T11:22:31;98736.29;;;7.89;90.16
60246;BME280;46107;53.356;-1.524;2023-02-17T11:25:02;98774.80;;;8.05;90.71
60246;BME280;46107;53.356;-1.524;2023-02-17T11:27:30;98761.47;;;8.13;89.34
60246;BME280;46107;53.356;-1.524;2023-02-17T11:30:07;98799.31;;;8.34;90.76
60246;BME280;46107;53.356;-1.524;2023-02-17T11:32:35;98818.91;;;9.07;83.63
60246;BME280;46107;53.356;-1.524;2023-02-17T11:35:04;98821.57;;;9.48;82.00
60246;BME280;46107;53.356;-1.524;2023-02-17T11:37:32;98842.37;;;9.29;79.95
60246;BME280;46107;53.356;-1.524;2023-02-17T11:40:22;98837.90;;;9.24;83.86
60246;BME280;46107;53.356;-1.524;2023-02-17T11:42:57;98845.84;;;8.90;86.66
60246;BME280;46107;53.356;-1.524;2023-02-17T11:45:28;98861.42;;;9.34;81.33
60246;BME280;46107;53.356;-1.524;2023-02-17T11:48:13;98888.45;;;9.53;79.12
60246;BME280;46107;53.356;-1.524;2023-02-17T11:50:50;98880.15;;;8.51;81.67
60246;BME280;46107;53.356;-1.524;2023-02-17T11:53:28;98894.89;;;9.65;81.03
60246;BME280;46107;53.356;-1.524;2023-02-17T11:56:07;98908.16;;;8.77;81.92
60246;BME280;46107;53.356;-1.524;2023-02-17T11:58:51;98912.21;;;9.89;78.98
60246;BME280;46107;53.356;-1.524;2023-02-17T12:01:42;98905.85;;;9.18;81.06
60246;BME280;46107;53.356;-1.524;2023-02-17T12:04:24;98919.23;;;9.64;78.97
60246;BME280;46107;53.356;-1.524;2023-02-17T12:07:05;98933.50;;;9.31;80.41
60246;BME280;46107;53.356;-1.524;2023-02-17T12:09:45;98939.45;;;8.84;82.37
60246;BME280;46107;53.356;-1.524;2023-02-17T12:12:21;98956.45;;;8.55;85.63
60246;BME280;46107;53.356;-1.524;2023-02-17T12:15:02;98970.93;;;7.73;86.30
60246;BME280;46107;53.356;-1.524;2023-02-17T12:17:41;98985.26;;;7.49;92.71
60246;BME280;46107;53.356;-1.524;2023-02-17T12:20:27;98993.09;;;7.53;92.13
60246;BME280;46107;53.356;-1.524;2023-02-17T12:23:08;99009.54;;;7.64;89.95
60246;BME280;46107;53.356;-1.524;2023-02-17T12:25:46;99024.13;;;7.70;88.63
60246;BME280;46107;53.356;-1.524;2023-02-17T12:28:37;99024.70;;;7.94;87.07
60246;BME280;46107;53.356;-1.524;2023-02-17T12:31:16;99032.35;;;7.49;87.83
60246;BME280;46107;53.356;-1.524;2023-02-17T12:33:56;99034.03;;;7.61;87.51
60246;BME280;46107;53.356;-1.524;2023-02-17T12:36:31;99034.69;;;7.42;87.80
60246;BME280;46107;53.356;-1.524;2023-02-17T12:39:02;99031.91;;;7.28;89.70
60246;BME280;46107;53.356;-1.524;2023-02-17T12:41:35;99044.45;;;7.53;87.65
60246;BME280;46107;53.356;-1.524;2023-02-17T12:44:09;99041.08;;;7.71;85.62
60246;BME280;46107;53.356;-1.524;2023-02-17T12:46:42;99035.98;;;6.99;90.33
60246;BME280;46107;53.356;-1.524;2023-02-17T12:49:13;99040.94;;;8.31;82.62
60246;BME280;46107;53.356;-1.524;2023-02-17T12:51:47;99035.75;;;7.93;82.48
60246;BME280;46107;53.356;-1.524;2023-02-17T12:54:19;99044.07;;;7.52;83.83
60246;BME280;46107;53.356;-1.524;2023-02-17T12:56:57;99047.50;;;8.47;79.43
60246;BME280;46107;53.356;-1.524;2023-02-17T12:59:32;99042.80;;;8.01;80.58
60246;BME280;46107;53.356;-1.524;2023-02-17T13:02:03;99053.25;;;7.82;79.11
60246;BME280;46107;53.356;-1.524;2023-02-17T13:04:33;99056.42;;;8.12;76.44
60246;BME280;46107;53.356;-1.524;2023-02-17T13:07:08;99060.70;;;7.83;77.96
60246;BME280;46107;53.356;-1.524;2023-02-17T13:09:41;99074.65;;;7.23;81.19
60246;BME280;46107;53.356;-1.524;2023-02-17T13:12:55;99062.78;;;7.69;78.46